Flugplatz Celle Airport

Bericht für ETHC

vom 31.03. um 22:20 UTC

kein Wind

Sichtweite 10 km oder mehr

Temperatur -2.0°C

Taupunkt -5.0°C

Luftfeuchtigkeit 80%

Luftdruck 1027 hPa

ETHC 312220Z AUTO 00000KT 9999 // ////// M02/M05 Q1027 ///
Keine Prognose (TAF) verfügbar.
Impressum